Airfield :
LOGIN :

Register | Disclaimer

   EN    FR    IT 

 










Legend :    VFR   Marginal VFR   IFR   Intensive IFR   Very Intensive IFR
Visi :
Ceiling :
>= 8 km
>= 3000ft
5 to 8 km
1000 to 3000 ft
1500m to 5 km
500 to 1000 ft
800 to 1500m
200 to 500 ft
< 800m
< 200 ft
Symbols :   Thunderstorms  Fog  Heavy snow  Heavy precipitations  Wind > 20 kt
SIGMETs :     Misc.  Thunderstorms  Icing  Turbulence  Mountain Waves  Volcanic Ashes






- Airport Elevation : 587 ft
- IATA code : XCR


LFOK - Chalons Vatry

CURRENT METAR :
  • 150930Z AUTO 18009KT 9999 -DZ SCT006 BKN014 OVC060 13/13 Q1008 TEMPO 3000 RA BKN030CB

EXPIRED METARs :
  • 150900Z AUTO 18011KT 8000 -RADZ FEW016 SCT022 BKN030 13/12 Q1008 TEMPO 3000 RA BKN030CB
  • 150830Z AUTO 19009KT 9999 SCT021 BKN027 OVC060 13/13 Q1008 TEMPO 3000 RA BKN030CB
  • 150800Z AUTO 20006KT 9999 FEW023 BKN029 OVC062 13/13 Q1008 TEMPO 3000 RA BKN030CB
  • 150730Z AUTO 22008KT 9999 SCT006 SCT049 OVC060 13/13 Q1008 TEMPO 3000 RA BKN030CB
  • 150700Z AUTO 23006KT 4400 -DZ BR BKN004 BKN017 BKN022 13/12 Q1007 TEMPO RA BKN030CB

TAF TAF LFOK
Valid from the 15 at 06:00 until the 16 at 06:00 UTC


150500Z 1506/1606 20009KT 9999 BKN030
TEMPO 1506/1512 3000 RA BKN006 BKN030TCU
PROB30
TEMPO 1506/1512 BKN030CB
BECMG 1600/1603 16013KT
TEMPO 1603/1606 3000 RADZ BKN006 OVC013



MET'MAP, your aeronautical weather chart ! - Copyright ORBIFLY December 2007 - Disclaimer

ORBIFLY MET'MAP TEAM :

Programming & Development : Alexandra Zaïnal
Concept & Development : Baudouin d'Aumeries
Co-Development & Prog : Marc-Olivier Méhu
Technical & hardware support : Manuel Goepfert

Contact : metmap@orbifly.com




SOURCES & CREDITS :

   NOAA